sensor_id;sensor_type;location;lat;lon;timestamp;temperature;humidity
64599;SHT31;51008;51.504;11.548;2022-07-29T00:02:40;14.22;71.02
64599;SHT31;51008;51.504;11.548;2022-07-29T00:07:40;14.26;70.99
64599;SHT31;51008;51.504;11.548;2022-07-29T00:12:41;14.33;70.42
64599;SHT31;51008;51.504;11.548;2022-07-29T00:17:42;14.36;70.27
64599;SHT31;51008;51.504;11.548;2022-07-29T00:22:43;14.40;70.53
64599;SHT31;51008;51.504;11.548;2022-07-29T00:27:44;14.45;70.83
64599;SHT31;51008;51.504;11.548;2022-07-29T00:32:45;14.42;70.95
64599;SHT31;51008;51.504;11.548;2022-07-29T00:37:46;14.46;70.88
64599;SHT31;51008;51.504;11.548;2022-07-29T00:42:49;14.47;70.50
64599;SHT31;51008;51.504;11.548;2022-07-29T00:47:51;14.50;70.81
64599;SHT31;51008;51.504;11.548;2022-07-29T00:52:52;14.52;70.34
64599;SHT31;51008;51.504;11.548;2022-07-29T00:57:55;14.45;70.59
64599;SHT31;51008;51.504;11.548;2022-07-29T01:02:56;14.45;70.35
64599;SHT31;51008;51.504;11.548;2022-07-29T01:07:57;14.45;70.03
64599;SHT31;51008;51.504;11.548;2022-07-29T01:13:00;14.46;70.86
64599;SHT31;51008;51.504;11.548;2022-07-29T01:18:11;14.46;71.01
64599;SHT31;51008;51.504;11.548;2022-07-29T01:33:57;14.39;70.62
64599;SHT31;51008;51.504;11.548;2022-07-29T01:39:06;14.37;70.89
64599;SHT31;51008;51.504;11.548;2022-07-29T01:44:20;14.26;72.02
64599;SHT31;51008;51.504;11.548;2022-07-29T01:49:27;14.29;72.03
64599;SHT31;51008;51.504;11.548;2022-07-29T01:54:41;14.25;71.56
64599;SHT31;51008;51.504;11.548;2022-07-29T01:59:43;14.32;71.39
64599;SHT31;51008;51.504;11.548;2022-07-29T02:04:47;14.35;71.22
64599;SHT31;51008;51.504;11.548;2022-07-29T02:09:50;14.40;70.63
64599;SHT31;51008;51.504;11.548;2022-07-29T02:14:53;14.45;71.14
64599;SHT31;51008;51.504;11.548;2022-07-29T02:19:57;14.42;70.94
64599;SHT31;51008;51.504;11.548;2022-07-29T02:25:00;14.45;70.32
64599;SHT31;51008;51.504;11.548;2022-07-29T02:30:03;14.47;70.86
64599;SHT31;51008;51.504;11.548;2022-07-29T02:35:06;14.45;70.78
64599;SHT31;51008;51.504;11.548;2022-07-29T02:40:09;14.46;70.97
64599;SHT31;51008;51.504;11.548;2022-07-29T02:45:11;14.45;70.87
64599;SHT31;51008;51.504;11.548;2022-07-29T02:50:18;14.47;70.99
64599;SHT31;51008;51.504;11.548;2022-07-29T02:55:31;14.36;72.33
64599;SHT31;51008;51.504;11.548;2022-07-29T03:00:36;14.30;72.79
64599;SHT31;51008;51.504;11.548;2022-07-29T03:05:38;14.30;72.51
64599;SHT31;51008;51.504;11.548;2022-07-29T03:10:43;14.35;72.32
64599;SHT31;51008;51.504;11.548;2022-07-29T03:15:45;14.36;71.81
64599;SHT31;51008;51.504;11.548;2022-07-29T03:20:47;14.42;71.71
64599;SHT31;51008;51.504;11.548;2022-07-29T03:25:49;14.36;72.09
64599;SHT31;51008;51.504;11.548;2022-07-29T03:30:50;14.37;72.25
64599;SHT31;51008;51.504;11.548;2022-07-29T03:35:51;14.39;72.21
64599;SHT31;51008;51.504;11.548;2022-07-29T03:41:04;14.37;72.10
64599;SHT31;51008;51.504;11.548;2022-07-29T03:46:07;14.29;72.33
64599;SHT31;51008;51.504;11.548;2022-07-29T03:51:09;14.22;72.42
64599;SHT31;51008;51.504;11.548;2022-07-29T03:56:15;14.25;71.85
64599;SHT31;51008;51.504;11.548;2022-07-29T04:01:18;14.32;70.45
64599;SHT31;51008;51.504;11.548;2022-07-29T04:06:19;14.42;70.53
64599;SHT31;51008;51.504;11.548;2022-07-29T04:11:20;14.55;69.83
64599;SHT31;51008;51.504;11.548;2022-07-29T04:16:21;14.66;69.44
64599;SHT31;51008;51.504;11.548;2022-07-29T04:21:22;14.77;68.52
64599;SHT31;51008;51.504;11.548;2022-07-29T04:26:23;14.90;67.97
64599;SHT31;51008;51.504;11.548;2022-07-29T04:31:24;15.11;67.43
64599;SHT31;51008;51.504;11.548;2022-07-29T04:36:25;15.26;66.55
64599;SHT31;51008;51.504;11.548;2022-07-29T04:41:30;15.43;66.09
64599;SHT31;51008;51.504;11.548;2022-07-29T04:46:31;15.64;65.81
64599;SHT31;51008;51.504;11.548;2022-07-29T04:51:32;15.78;65.19
64599;SHT31;51008;51.504;11.548;2022-07-29T04:56:33;15.91;64.60
64599;SHT31;51008;51.504;11.548;2022-07-29T05:01:34;16.00;64.52
64599;SHT31;51008;51.504;11.548;2022-07-29T05:06:35;16.08;64.27
64599;SHT31;51008;51.504;11.548;2022-07-29T05:11:36;16.15;64.02
64599;SHT31;51008;51.504;11.548;2022-07-29T05:16:38;16.22;64.08
64599;SHT31;51008;51.504;11.548;2022-07-29T05:21:39;16.39;63.89
64599;SHT31;51008;51.504;11.548;2022-07-29T05:26:40;16.57;63.22
64599;SHT31;51008;51.504;11.548;2022-07-29T05:31:41;16.80;63.20
64599;SHT31;51008;51.504;11.548;2022-07-29T05:36:42;16.91;62.25
64599;SHT31;51008;51.504;11.548;2022-07-29T05:41:43;17.02;62.59
64599;SHT31;51008;51.504;11.548;2022-07-29T05:46:44;17.11;62.80
64599;SHT31;51008;51.504;11.548;2022-07-29T05:51:45;17.09;62.06
64599;SHT31;51008;51.504;11.548;2022-07-29T05:56:46;17.16;62.28
64599;SHT31;51008;51.504;11.548;2022-07-29T06:01:47;17.27;62.33
64599;SHT31;51008;51.504;11.548;2022-07-29T06:06:48;17.50;62.21
64599;SHT31;51008;51.504;11.548;2022-07-29T06:11:49;17.71;60.73
64599;SHT31;51008;51.504;11.548;2022-07-29T06:16:50;17.94;60.82
64599;SHT31;51008;51.504;11.548;2022-07-29T06:21:51;18.15;59.63
64599;SHT31;51008;51.504;11.548;2022-07-29T06:26:52;18.17;60.34
64599;SHT31;51008;51.504;11.548;2022-07-29T06:31:53;18.41;60.24
64599;SHT31;51008;51.504;11.548;2022-07-29T06:36:54;18.50;59.35
64599;SHT31;51008;51.504;11.548;2022-07-29T06:41:55;18.57;59.19
64599;SHT31;51008;51.504;11.548;2022-07-29T06:47:00;18.63;59.75
64599;SHT31;51008;51.504;11.548;2022-07-29T06:52:01;18.63;59.67
64599;SHT31;51008;51.504;11.548;2022-07-29T06:57:02;18.68;59.37
64599;SHT31;51008;51.504;11.548;2022-07-29T07:02:03;19.01;59.36
64599;SHT31;51008;51.504;11.548;2022-07-29T07:07:03;19.33;57.49
64599;SHT31;51008;51.504;11.548;2022-07-29T07:12:05;19.43;57.49
64599;SHT31;51008;51.504;11.548;2022-07-29T07:17:06;19.44;57.35
64599;SHT31;51008;51.504;11.548;2022-07-29T07:22:07;19.58;57.45
64599;SHT31;51008;51.504;11.548;2022-07-29T07:27:08;20.23;55.18
64599;SHT31;51008;51.504;11.548;2022-07-29T07:32:09;20.96;53.29
64599;SHT31;51008;51.504;11.548;2022-07-29T07:37:09;21.71;49.80
64599;SHT31;51008;51.504;11.548;2022-07-29T07:42:10;22.06;49.93
64599;SHT31;51008;51.504;11.548;2022-07-29T07:47:12;22.54;50.02
64599;SHT31;51008;51.504;11.548;2022-07-29T07:52:14;22.92;47.29
64599;SHT31;51008;51.504;11.548;2022-07-29T07:57:16;23.67;46.91
64599;SHT31;51008;51.504;11.548;2022-07-29T08:02:17;23.81;46.33
64599;SHT31;51008;51.504;11.548;2022-07-29T08:07:18;24.36;44.97
64599;SHT31;51008;51.504;11.548;2022-07-29T08:12:19;24.61;43.40
64599;SHT31;51008;51.504;11.548;2022-07-29T08:17:20;24.57;43.98
64599;SHT31;51008;51.504;11.548;2022-07-29T08:22:21;25.15;43.04
64599;SHT31;51008;51.504;11.548;2022-07-29T08:27:22;25.38;42.86
64599;SHT31;51008;51.504;11.548;2022-07-29T08:32:25;25.67;41.85
64599;SHT31;51008;51.504;11.548;2022-07-29T08:37:26;25.99;42.38
64599;SHT31;51008;51.504;11.548;2022-07-29T08:42:27;26.12;41.26
64599;SHT31;51008;51.504;11.548;2022-07-29T08:47:28;26.89;39.59
64599;SHT31;51008;51.504;11.548;2022-07-29T08:52:31;27.89;38.76
64599;SHT31;51008;51.504;11.548;2022-07-29T08:57:33;27.89;37.81
64599;SHT31;51008;51.504;11.548;2022-07-29T09:02:40;28.02;37.92
64599;SHT31;51008;51.504;11.548;2022-07-29T09:07:42;28.43;37.38
64599;SHT31;51008;51.504;11.548;2022-07-29T09:12:43;27.57;37.11
64599;SHT31;51008;51.504;11.548;2022-07-29T09:17:49;27.55;38.47
64599;SHT31;51008;51.504;11.548;2022-07-29T09:22:51;26.98;39.55
64599;SHT31;51008;51.504;11.548;2022-07-29T09:27:52;26.79;40.57
64599;SHT31;51008;51.504;11.548;2022-07-29T09:32:54;27.00;40.25
64599;SHT31;51008;51.504;11.548;2022-07-29T09:37:55;27.58;38.24
64599;SHT31;51008;51.504;11.548;2022-07-29T09:42:56;28.41;37.49
64599;SHT31;51008;51.504;11.548;2022-07-29T09:47:58;27.71;37.62
64599;SHT31;51008;51.504;11.548;2022-07-29T09:52:59;28.14;37.63
64599;SHT31;51008;51.504;11.548;2022-07-29T09:58:20;28.83;36.80
64599;SHT31;51008;51.504;11.548;2022-07-29T10:03:21;28.62;36.07
64599;SHT31;51008;51.504;11.548;2022-07-29T10:08:26;28.65;36.44
64599;SHT31;51008;51.504;11.548;2022-07-29T10:13:27;29.26;35.33
64599;SHT31;51008;51.504;11.548;2022-07-29T10:18:28;29.37;34.76
64599;SHT31;51008;51.504;11.548;2022-07-29T10:23:30;29.69;35.27
64599;SHT31;51008;51.504;11.548;2022-07-29T10:28:31;30.05;34.79
64599;SHT31;51008;51.504;11.548;2022-07-29T10:38:58;30.03;33.30
64599;SHT31;51008;51.504;11.548;2022-07-29T10:44:03;29.50;33.97
64599;SHT31;51008;51.504;11.548;2022-07-29T10:54:09;29.45;32.73
64599;SHT31;51008;51.504;11.548;2022-07-29T11:09:43;29.50;33.68
64599;SHT31;51008;51.504;11.548;2022-07-29T11:14:59;29.07;31.72
64599;SHT31;51008;51.504;11.548;2022-07-29T11:25:32;28.86;34.18
64599;SHT31;51008;51.504;11.548;2022-07-29T11:30:53;29.10;32.96
64599;SHT31;51008;51.504;11.548;2022-07-29T11:36:14;28.30;33.86
64599;SHT31;51008;51.504;11.548;2022-07-29T11:51:53;28.12;33.23
64599;SHT31;51008;51.504;11.548;2022-07-29T11:56:54;27.86;34.37
64599;SHT31;51008;51.504;11.548;2022-07-29T12:01:58;28.09;34.19
64599;SHT31;51008;51.504;11.548;2022-07-29T12:06:59;28.09;34.64
64599;SHT31;51008;51.504;11.548;2022-07-29T12:12:00;28.10;34.98
64599;SHT31;51008;51.504;11.548;2022-07-29T12:17:01;28.03;34.10
64599;SHT31;51008;51.504;11.548;2022-07-29T12:22:02;28.34;34.60
64599;SHT31;51008;51.504;11.548;2022-07-29T12:27:03;28.82;33.52
64599;SHT31;51008;51.504;11.548;2022-07-29T12:32:04;29.37;32.44
64599;SHT31;51008;51.504;11.548;2022-07-29T12:37:05;29.50;32.36
64599;SHT31;51008;51.504;11.548;2022-07-29T12:42:13;29.62;33.06
64599;SHT31;51008;51.504;11.548;2022-07-29T12:47:15;29.76;31.62
64599;SHT31;51008;51.504;11.548;2022-07-29T12:52:30;29.89;31.88
64599;SHT31;51008;51.504;11.548;2022-07-29T12:57:32;29.65;32.14
64599;SHT31;51008;51.504;11.548;2022-07-29T13:02:34;30.14;31.90
64599;SHT31;51008;51.504;11.548;2022-07-29T13:07:37;30.14;31.48
64599;SHT31;51008;51.504;11.548;2022-07-29T13:12:38;30.62;31.04
64599;SHT31;51008;51.504;11.548;2022-07-29T13:17:41;30.87;30.54
64599;SHT31;51008;51.504;11.548;2022-07-29T13:22:47;30.45;30.66
64599;SHT31;51008;51.504;11.548;2022-07-29T13:27:48;30.35;31.21
64599;SHT31;51008;51.504;11.548;2022-07-29T13:32:50;30.59;31.07
64599;SHT31;51008;51.504;11.548;2022-07-29T13:37:51;30.44;31.03
64599;SHT31;51008;51.504;11.548;2022-07-29T13:42:52;30.67;30.70
64599;SHT31;51008;51.504;11.548;2022-07-29T13:47:53;31.06;30.02
64599;SHT31;51008;51.504;11.548;2022-07-29T13:52:54;31.27;28.50
64599;SHT31;51008;51.504;11.548;2022-07-29T13:57:55;31.35;28.94
64599;SHT31;51008;51.504;11.548;2022-07-29T14:02:56;30.96;29.26
64599;SHT31;51008;51.504;11.548;2022-07-29T14:07:57;30.52;28.94
64599;SHT31;51008;51.504;11.548;2022-07-29T14:12:58;30.61;28.93
64599;SHT31;51008;51.504;11.548;2022-07-29T14:17:59;30.79;29.61
64599;SHT31;51008;51.504;11.548;2022-07-29T14:23:00;30.90;29.45
64599;SHT31;51008;51.504;11.548;2022-07-29T14:28:00;31.12;29.56
64599;SHT31;51008;51.504;11.548;2022-07-29T14:33:01;31.06;29.58
64599;SHT31;51008;51.504;11.548;2022-07-29T14:38:02;30.82;28.85
64599;SHT31;51008;51.504;11.548;2022-07-29T14:43:04;30.86;28.90
64599;SHT31;51008;51.504;11.548;2022-07-29T14:48:05;31.00;29.30
64599;SHT31;51008;51.504;11.548;2022-07-29T14:53:06;30.61;29.47
64599;SHT31;51008;51.504;11.548;2022-07-29T14:58:07;30.38;30.14
64599;SHT31;51008;51.504;11.548;2022-07-29T15:03:08;30.10;30.67
64599;SHT31;51008;51.504;11.548;2022-07-29T15:08:09;29.92;30.38
64599;SHT31;51008;51.504;11.548;2022-07-29T15:13:10;29.82;31.24
64599;SHT31;51008;51.504;11.548;2022-07-29T15:18:11;29.79;31.16
64599;SHT31;51008;51.504;11.548;2022-07-29T15:23:12;29.69;31.42
64599;SHT31;51008;51.504;11.548;2022-07-29T15:28:13;29.89;30.36
64599;SHT31;51008;51.504;11.548;2022-07-29T15:33:14;30.25;30.47
64599;SHT31;51008;51.504;11.548;2022-07-29T15:38:16;30.31;29.56
64599;SHT31;51008;51.504;11.548;2022-07-29T15:43:17;30.47;30.27
64599;SHT31;51008;51.504;11.548;2022-07-29T15:48:17;30.24;30.10
64599;SHT31;51008;51.504;11.548;2022-07-29T15:53:18;29.86;30.36
64599;SHT31;51008;51.504;11.548;2022-07-29T15:58:19;29.31;31.28
64599;SHT31;51008;51.504;11.548;2022-07-29T16:03:21;28.95;31.22
64599;SHT31;51008;51.504;11.548;2022-07-29T16:08:22;28.64;31.98
64599;SHT31;51008;51.504;11.548;2022-07-29T16:13:23;28.25;31.73
64599;SHT31;51008;51.504;11.548;2022-07-29T16:18:24;28.16;32.09
64599;SHT31;51008;51.504;11.548;2022-07-29T16:23:25;28.21;32.54
64599;SHT31;51008;51.504;11.548;2022-07-29T16:28:26;28.47;32.12
64599;SHT31;51008;51.504;11.548;2022-07-29T16:33:27;28.54;31.49
64599;SHT31;51008;51.504;11.548;2022-07-29T16:38:28;28.68;31.95
64599;SHT31;51008;51.504;11.548;2022-07-29T16:43:29;28.50;31.71
64599;SHT31;51008;51.504;11.548;2022-07-29T16:48:29;28.30;32.26
64599;SHT31;51008;51.504;11.548;2022-07-29T16:53:30;28.03;32.61
64599;SHT31;51008;51.504;11.548;2022-07-29T16:58:31;27.92;32.84
64599;SHT31;51008;51.504;11.548;2022-07-29T17:03:32;27.89;33.81
64599;SHT31;51008;51.504;11.548;2022-07-29T17:08:36;27.72;33.65
64599;SHT31;51008;51.504;11.548;2022-07-29T17:13:37;27.73;33.86
64599;SHT31;51008;51.504;11.548;2022-07-29T17:18:38;27.51;34.00
64599;SHT31;51008;51.504;11.548;2022-07-29T17:23:39;27.45;34.26
64599;SHT31;51008;51.504;11.548;2022-07-29T17:28:40;27.33;34.58
64599;SHT31;51008;51.504;11.548;2022-07-29T17:33:41;27.29;34.32
64599;SHT31;51008;51.504;11.548;2022-07-29T17:38:42;27.16;34.45
64599;SHT31;51008;51.504;11.548;2022-07-29T17:43:43;27.13;35.00
64599;SHT31;51008;51.504;11.548;2022-07-29T17:48:44;26.98;35.26
64599;SHT31;51008;51.504;11.548;2022-07-29T17:53:45;26.86;35.44
64599;SHT31;51008;51.504;11.548;2022-07-29T17:58:46;26.71;35.90
64599;SHT31;51008;51.504;11.548;2022-07-29T18:03:47;26.64;36.55
64599;SHT31;51008;51.504;11.548;2022-07-29T18:08:48;26.47;36.63
64599;SHT31;51008;51.504;11.548;2022-07-29T18:13:49;26.37;38.93
64599;SHT31;51008;51.504;11.548;2022-07-29T18:18:50;26.14;40.32
64599;SHT31;51008;51.504;11.548;2022-07-29T18:23:51;25.84;42.83
64599;SHT31;51008;51.504;11.548;2022-07-29T18:28:52;25.64;43.72
64599;SHT31;51008;51.504;11.548;2022-07-29T18:33:53;25.54;44.37
64599;SHT31;51008;51.504;11.548;2022-07-29T18:38:54;25.43;45.64
64599;SHT31;51008;51.504;11.548;2022-07-29T18:43:55;25.24;46.46
64599;SHT31;51008;51.504;11.548;2022-07-29T18:48:56;25.02;47.53
64599;SHT31;51008;51.504;11.548;2022-07-29T18:53:57;24.85;48.04
64599;SHT31;51008;51.504;11.548;2022-07-29T18:58:58;24.71;49.03
64599;SHT31;51008;51.504;11.548;2022-07-29T19:03:59;24.50;49.89
64599;SHT31;51008;51.504;11.548;2022-07-29T19:09:00;24.34;50.56
64599;SHT31;51008;51.504;11.548;2022-07-29T19:14:01;24.24;50.81
64599;SHT31;51008;51.504;11.548;2022-07-29T19:19:03;24.09;51.82
64599;SHT31;51008;51.504;11.548;2022-07-29T19:24:05;23.99;52.88
64599;SHT31;51008;51.504;11.548;2022-07-29T19:29:06;23.75;54.55
64599;SHT31;51008;51.504;11.548;2022-07-29T19:34:07;23.61;54.39
64599;SHT31;51008;51.504;11.548;2022-07-29T19:39:08;23.40;54.38
64599;SHT31;51008;51.504;11.548;2022-07-29T19:44:09;23.31;55.25
64599;SHT31;51008;51.504;11.548;2022-07-29T19:49:10;23.16;55.71
64599;SHT31;51008;51.504;11.548;2022-07-29T19:54:11;23.09;55.84
64599;SHT31;51008;51.504;11.548;2022-07-29T19:59:12;22.99;56.94
64599;SHT31;51008;51.504;11.548;2022-07-29T20:04:13;22.91;56.18
64599;SHT31;51008;51.504;11.548;2022-07-29T20:09:14;22.82;56.83
64599;SHT31;51008;51.504;11.548;2022-07-29T20:14:15;22.75;56.91
64599;SHT31;51008;51.504;11.548;2022-07-29T20:19:16;22.64;57.72
64599;SHT31;51008;51.504;11.548;2022-07-29T20:24:17;22.60;58.80
64599;SHT31;51008;51.504;11.548;2022-07-29T20:29:18;22.53;59.04
64599;SHT31;51008;51.504;11.548;2022-07-29T20:34:19;22.50;59.53
64599;SHT31;51008;51.504;11.548;2022-07-29T20:39:20;22.36;60.51
64599;SHT31;51008;51.504;11.548;2022-07-29T20:44:21;22.27;61.17
64599;SHT31;51008;51.504;11.548;2022-07-29T20:49:22;22.26;61.35
64599;SHT31;51008;51.504;11.548;2022-07-29T20:54:23;22.36;59.28
64599;SHT31;51008;51.504;11.548;2022-07-29T20:59:24;22.43;59.11
64599;SHT31;51008;51.504;11.548;2022-07-29T21:04:25;22.27;59.93
64599;SHT31;51008;51.504;11.548;2022-07-29T21:09:26;22.19;60.48
64599;SHT31;51008;51.504;11.548;2022-07-29T21:14:27;22.10;61.02
64599;SHT31;51008;51.504;11.548;2022-07-29T21:19:28;21.99;61.60
64599;SHT31;51008;51.504;11.548;2022-07-29T21:24:29;21.88;62.27
64599;SHT31;51008;51.504;11.548;2022-07-29T21:29:30;21.81;62.65
64599;SHT31;51008;51.504;11.548;2022-07-29T21:34:31;21.68;63.26
64599;SHT31;51008;51.504;11.548;2022-07-29T21:39:32;21.53;63.96
64599;SHT31;51008;51.504;11.548;2022-07-29T21:44:33;21.41;64.43
64599;SHT31;51008;51.504;11.548;2022-07-29T21:49:34;21.31;64.63
64599;SHT31;51008;51.504;11.548;2022-07-29T21:54:35;21.22;64.71
64599;SHT31;51008;51.504;11.548;2022-07-29T21:59:36;21.14;64.33
64599;SHT31;51008;51.504;11.548;2022-07-29T22:04:37;21.09;63.90
64599;SHT31;51008;51.504;11.548;2022-07-29T22:09:38;21.03;63.96
64599;SHT31;51008;51.504;11.548;2022-07-29T22:14:39;21.06;64.12
64599;SHT31;51008;51.504;11.548;2022-07-29T22:19:40;20.96;64.69
64599;SHT31;51008;51.504;11.548;2022-07-29T22:24:41;20.96;65.31
64599;SHT31;51008;51.504;11.548;2022-07-29T22:29:42;20.94;65.71
64599;SHT31;51008;51.504;11.548;2022-07-29T22:34:43;20.91;66.24
64599;SHT31;51008;51.504;11.548;2022-07-29T22:39:44;20.88;66.62
64599;SHT31;51008;51.504;11.548;2022-07-29T22:44:45;20.78;67.00
64599;SHT31;51008;51.504;11.548;2022-07-29T22:49:46;20.72;67.48
64599;SHT31;51008;51.504;11.548;2022-07-29T22:54:47;20.68;67.78
64599;SHT31;51008;51.504;11.548;2022-07-29T22:59:48;20.67;69.00
64599;SHT31;51008;51.504;11.548;2022-07-29T23:04:48;20.50;70.90
64599;SHT31;51008;51.504;11.548;2022-07-29T23:09:49;20.20;72.37
64599;SHT31;51008;51.504;11.548;2022-07-29T23:14:50;20.02;72.80
64599;SHT31;51008;51.504;11.548;2022-07-29T23:19:51;19.85;73.09
64599;SHT31;51008;51.504;11.548;2022-07-29T23:24:52;19.71;73.67
64599;SHT31;51008;51.504;11.548;2022-07-29T23:29:53;19.58;74.24
64599;SHT31;51008;51.504;11.548;2022-07-29T23:34:54;19.40;74.93
64599;SHT31;51008;51.504;11.548;2022-07-29T23:39:55;19.30;75.68
64599;SHT31;51008;51.504;11.548;2022-07-29T23:44:56;19.18;76.49
64599;SHT31;51008;51.504;11.548;2022-07-29T23:49:57;19.13;76.57
64599;SHT31;51008;51.504;11.548;2022-07-29T23:54:58;19.02;77.05
64599;SHT31;51008;51.504;11.548;2022-07-29T23:59:59;18.98;77.53
